»·PEaware :: AAL235 KSFO-KLAX

AAL235 :: KSFO-KLAX

FLIGHT INFORMATION

Flight Status: Arrived
Operator:
American Airlines
More flights by this operator :: More flights under this callsign
Pilot: Simon H. (14656)
Aircraft: BOEING 737-800
(B738)
More flights by this aircraft type
Origin: KSFO San Francisco Intl
United States
Destination: KLAX Los Angeles Intl
United States
More flights between these airports :: More routes between these airports
Route: +SSTIK3 EBAYE BURGL IRNMN1
File this flight plan on PilotEdge
Remarks:
Altitude:
(Current/Filed)
35,000ft
Speed:
(Current/Filed)
320kts
Departed: 07-Jan-18 08:02 PM
Arrived: 07-Jan-18 09:15 PM
Distance/Time
Traveled:
292nm/1:13
Distance/Time
To Go:
Arrived

Flight Plot

Page will automatically refresh every two minutes.

Flight plan parsing failed; only flown route is shown


Map Options




Map Legend


Flown Route
Filed Route
Departure Airport
Arrival Airport
Navaid (VOR, NDB)
Fix

Horizontal Profiles

Position Reports

Time Latitude Longitude Heading Altitude Ground
Speed
07-Jan-18 19:33 37.611681 -122.385973 34 21ft 0kts
07-Jan-18 19:34 37.611681 -122.385973 34 21ft 0kts
07-Jan-18 19:35 37.611681 -122.385973 34 21ft 0kts
07-Jan-18 19:36 37.611681 -122.385973 34 21ft 0kts
07-Jan-18 19:37 37.611681 -122.385973 34 21ft 0kts
07-Jan-18 19:38 37.611681 -122.385973 34 21ft 0kts
07-Jan-18 19:39 37.611681 -122.385973 34 21ft 0kts
07-Jan-18 19:40 37.611681 -122.385973 34 21ft 0kts
07-Jan-18 19:41 37.611681 -122.385973 34 21ft 0kts
07-Jan-18 19:42 37.611681 -122.385973 34 21ft 0kts
07-Jan-18 19:43 37.611681 -122.385973 34 21ft 0kts
07-Jan-18 19:44 37.611681 -122.385973 34 21ft 0kts
07-Jan-18 19:45 37.611681 -122.385973 34 21ft 0kts
07-Jan-18 19:46 37.611681 -122.385973 34 21ft 0kts
07-Jan-18 19:47 37.611681 -122.385973 34 21ft 0kts
07-Jan-18 19:48 37.611681 -122.385973 34 21ft 0kts
07-Jan-18 19:49 37.611681 -122.385973 34 21ft 0kts
07-Jan-18 19:50 37.611681 -122.385973 34 21ft 0kts
07-Jan-18 19:51 37.611681 -122.385973 34 21ft 0kts
07-Jan-18 19:52 37.611681 -122.385973 34 21ft 0kts
07-Jan-18 19:53 37.611681 -122.385973 34 21ft 0kts
07-Jan-18 19:54 37.611681 -122.385973 34 21ft 0kts
07-Jan-18 19:55 37.611681 -122.385973 34 21ft 0kts
07-Jan-18 19:56 37.611681 -122.385973 34 21ft 0kts
07-Jan-18 19:57 37.611681 -122.385973 34 21ft 0kts
07-Jan-18 19:58 37.611681 -122.385973 34 21ft 0kts
07-Jan-18 19:59 37.611681 -122.385973 34 21ft 0kts
07-Jan-18 20:00 37.611681 -122.385973 34 21ft 0kts
07-Jan-18 20:01 37.611300 -122.386285 21 21ft 0kts
07-Jan-18 20:02 37.611322 -122.386286 2 21ft 0kts
07-Jan-18 20:03 37.611359 -122.386536 135 21ft 2kts
07-Jan-18 20:04 37.609981 -122.383603 188 21ft 5kts
07-Jan-18 20:05 37.609310 -122.383269 114 21ft 0kts
07-Jan-18 20:06 37.609310 -122.383269 114 21ft 0kts
07-Jan-18 20:07 37.609163 -122.382393 70 21ft 12kts
07-Jan-18 20:08 37.630532 -122.368027 27 401ft 174kts
07-Jan-18 20:09 37.678598 -122.361681 351 2694ft 232kts
07-Jan-18 20:10 37.696201 -122.415958 243 5290ft 244kts
07-Jan-18 20:11 37.639039 -122.447875 190 8116ft 258kts
07-Jan-18 20:12 37.578148 -122.458736 191 9827ft 266kts
07-Jan-18 20:13 37.506961 -122.467293 170 10709ft 318kts
07-Jan-18 20:14 37.443862 -122.410002 139 14176ft 334kts
07-Jan-18 20:15 37.392941 -122.344332 139 16811ft 349kts
07-Jan-18 20:16 37.353122 -122.291858 140 18729ft 360kts
07-Jan-18 20:17 37.293884 -122.213392 141 21386ft 374kts
07-Jan-18 20:18 37.249040 -122.153894 141 23206ft 384kts
07-Jan-18 20:19 37.182378 -122.065362 142 25663ft 398kts
07-Jan-18 20:20 37.122256 -121.985347 143 28082ft 397kts
07-Jan-18 20:21 37.053647 -121.894075 144 30707ft 391kts
07-Jan-18 20:22 36.984084 -121.801475 144 33017ft 387kts
07-Jan-18 20:23 36.914007 -121.708095 145 35018ft 384kts
07-Jan-18 20:24 36.856315 -121.631350 144 35140ft 417kts
07-Jan-18 20:25 36.777917 -121.526512 143 35137ft 453kts
07-Jan-18 20:26 36.704695 -121.428386 143 35129ft 451kts
07-Jan-18 20:27 36.640008 -121.341756 143 35123ft 451kts
07-Jan-18 20:28 36.589509 -121.274048 144 35110ft 452kts
07-Jan-18 20:29 36.506191 -121.162341 143 35109ft 455kts
07-Jan-18 20:30 36.420583 -121.046836 140 35110ft 462kts
07-Jan-18 20:31 36.343948 -120.937099 139 35095ft 463kts
07-Jan-18 20:32 36.260992 -120.819230 139 35088ft 463kts
07-Jan-18 20:33 36.178656 -120.702254 139 35090ft 462kts
07-Jan-18 20:34 36.101550 -120.592590 139 35092ft 463kts
07-Jan-18 20:35 36.018282 -120.473981 139 35095ft 463kts
07-Jan-18 20:36 35.934877 -120.355023 138 35101ft 463kts
07-Jan-18 20:37 35.884233 -120.282698 139 35098ft 464kts
07-Jan-18 20:38 35.857512 -120.251593 153 35087ft 445kts
07-Jan-18 20:39 35.756269 -120.175478 157 35094ft 441kts
07-Jan-18 20:40 35.652902 -120.097800 157 35090ft 441kts
07-Jan-18 20:41 35.549488 -120.020021 157 35091ft 442kts
07-Jan-18 20:42 35.447944 -119.943759 157 35101ft 441kts
07-Jan-18 20:43 35.344596 -119.866114 157 35114ft 441kts
07-Jan-18 20:44 35.245760 -119.784581 150 35111ft 449kts
07-Jan-18 20:45 35.154820 -119.699167 152 34475ft 396kts
07-Jan-18 20:46 35.070863 -119.621135 152 32909ft 375kts
07-Jan-18 20:47 34.988037 -119.544117 151 31468ft 381kts
07-Jan-18 20:48 34.911447 -119.472723 151 30076ft 370kts
07-Jan-18 20:49 34.843174 -119.411689 151 28886ft 369kts
07-Jan-18 20:50 34.768773 -119.345222 151 27606ft 371kts
07-Jan-18 20:51 34.709884 -119.293318 151 26244ft 373kts
07-Jan-18 20:52 34.630496 -119.224151 150 23863ft 362kts
07-Jan-18 20:53 34.554857 -119.158885 148 21504ft 349kts
07-Jan-18 20:54 34.494192 -119.105103 147 19534ft 340kts
07-Jan-18 20:55 34.423533 -119.042814 147 17170ft 329kts
07-Jan-18 20:56 34.356487 -118.984805 147 14882ft 323kts
07-Jan-18 20:57 34.287856 -118.923161 144 12472ft 318kts
07-Jan-18 20:58 34.222571 -118.863534 144 11993ft 302kts
07-Jan-18 20:59 34.160330 -118.806058 141 12017ft 298kts
07-Jan-18 21:00 34.101747 -118.742012 139 12010ft 290kts
07-Jan-18 21:01 34.044119 -118.679138 136 11446ft 290kts
07-Jan-18 21:02 34.024426 -118.602319 97 9755ft 283kts
07-Jan-18 21:03 34.017048 -118.528218 97 9013ft 277kts
07-Jan-18 21:04 34.012165 -118.477123 96 8979ft 268kts
07-Jan-18 21:05 34.016314 -118.419744 77 7510ft 281kts
07-Jan-18 21:06 34.024887 -118.371272 77 6101ft 298kts
07-Jan-18 21:07 34.028643 -118.347559 82 6005ft 282kts
07-Jan-18 21:08 34.031111 -118.323051 82 5721ft 275kts
07-Jan-18 21:09 34.038642 -118.245366 82 4018ft 241kts
07-Jan-18 21:10 34.044673 -118.184991 82 3606ft 222kts
07-Jan-18 21:11 34.024423 -118.129306 163 3573ft 196kts
07-Jan-18 21:12 33.983316 -118.150183 230 3610ft 189kts
07-Jan-18 21:13 33.972831 -118.200886 263 3610ft 165kts
07-Jan-18 21:14 33.967778 -118.246861 259 3344ft 171kts
07-Jan-18 21:15 33.960677 -118.297874 265 2431ft 171kts
07-Jan-18 21:16 33.960125 -118.305461 266 2269ft 173kts
07-Jan-18 21:17 33.960106 -118.305750 266 2263ft 173kts
07-Jan-18 21:18 33.960090 -118.305991 266 2257ft 173kts
07-Jan-18 21:19 33.958563 -118.332055 265 1631ft 182kts
07-Jan-18 21:20 33.954413 -118.379975 264 619ft 172kts
07-Jan-18 21:21 33.950110 -118.421563 263 133ft 11kts
07-Jan-18 21:22 33.950358 -118.419440 274 133ft 0kts
07-Jan-18 21:23 33.950358 -118.419440 274 133ft 0kts
07-Jan-18 21:24 33.949295 -118.425565 240 133ft 37kts
07-Jan-18 21:25 33.946592 -118.427790 176 133ft 0kts
07-Jan-18 21:26 33.946592 -118.427790 176 133ft 0kts
07-Jan-18 21:27 33.946592 -118.427790 176 133ft 0kts
07-Jan-18 21:28 33.946592 -118.427790 176 133ft 0kts

Navigation Log

Ident Type
Flight plan parsing failed, navigation log unavailable